Time;durP1;ratioP1;P1;durP2;ratioP2;P2;SDS_P1;SDS_P2;PMS_P1;PMS_P2;Temp;Humidity;BMP_temperature;BMP_pressure;BME280_temperature;BME280_humidity;BME280_pressure;Samples;Min_cycle;Max_cycle;Signal;HPM_P1;HPM_P2
2022/07/27 00:00:13;;;;;;;5.60;1.45;;;;;;;;;;2327091;57;21074;-74
2022/07/27 00:02:40;;;;;;;4.15;1.48;;;;;;;;;;2327014;57;21219;-75
2022/07/27 00:05:07;;;;;;;5.60;1.65;;;;;;;;;;2327549;57;21118;-76
2022/07/27 00:07:34;;;;;;;4.55;1.20;;;;;;;;;;2326759;57;21134;-76
2022/07/27 00:10:01;;;;;;;6.87;1.55;;;;;;;;;;2511712;54;21122;-76
2022/07/27 00:12:28;;;;;;;5.87;2.25;;;;;;;;;;2327391;57;21054;-76
2022/07/27 00:14:57;;;;;;;5.03;1.50;;;;;;;;;;2327574;57;21042;-76
2022/07/27 00:17:25;;;;;;;4.15;1.37;;;;;;;;;;2324895;57;21058;-76
2022/07/27 00:19:52;;;;;;;5.72;1.37;;;;;;;;;;2327804;57;21026;-76
2022/07/27 00:22:19;;;;;;;6.00;1.80;;;;;;;;;;2324992;57;21662;-76
2022/07/27 00:24:46;;;;;;;2.87;1.85;;;;;;;;;;2326887;57;21046;-76
2022/07/27 00:27:13;;;;;;;7.30;1.40;;;;;;;;;;2327246;57;21058;-75
2022/07/27 00:29:41;;;;;;;5.50;1.58;;;;;;;;;;2331712;54;21078;-75
2022/07/27 00:32:09;;;;;;;5.05;1.30;;;;;;;;;;2327099;57;21126;-74
2022/07/27 00:34:36;;;;;;;5.20;1.40;;;;;;;;;;2327692;57;21133;-74
2022/07/27 00:37:03;;;;;;;4.03;1.33;;;;;;;;;;2327170;57;21118;-74
2022/07/27 00:39:30;;;;;;;3.65;1.40;;;;;;;;;;2327380;57;21222;-75
2022/07/27 00:41:58;;;;;;;3.65;1.35;;;;;;;;;;2327679;57;21038;-76
2022/07/27 00:44:25;;;;;;;6.00;1.70;;;;;;;;;;2418012;54;21189;-76
2022/07/27 00:46:52;;;;;;;5.32;1.58;;;;;;;;;;2327128;57;21114;-75
2022/07/27 00:49:20;;;;;;;4.78;1.40;;;;;;;;;;2435557;53;21062;-76
2022/07/27 00:51:47;;;;;;;2.53;1.40;;;;;;;;;;2326944;57;21058;-76
2022/07/27 00:54:14;;;;;;;8.18;1.90;;;;;;;;;;2423700;54;21139;-76
2022/07/27 00:56:41;;;;;;;6.72;1.58;;;;;;;;;;2326772;57;21102;-76
2022/07/27 00:59:10;;;;;;;10.45;2.20;;;;;;;;;;2327345;57;21632;-75
2022/07/27 01:01:37;;;;;;;7.95;1.30;;;;;;;;;;2326755;57;21062;-74
2022/07/27 01:04:04;;;;;;;5.40;1.37;;;;;;;;;;2432656;54;21647;-74
2022/07/27 01:06:32;;;;;;;4.78;1.17;;;;;;;;;;2346744;54;21030;-74
2022/07/27 01:11:46;;;;;;;2.53;1.08;;;;;;;;;;2346367;54;21061;-74
2022/07/27 01:14:13;;;;;;;8.32;1.85;;;;;;;;;;2326929;57;21094;-74
2022/07/27 01:16:40;;;;;;;5.22;1.30;;;;;;;;;;2327323;57;21054;-76
2022/07/27 01:19:09;;;;;;;5.80;1.33;;;;;;;;;;2327858;57;21137;-76
2022/07/27 01:21:36;;;;;;;3.62;1.12;;;;;;;;;;2327107;57;21595;-74
2022/07/27 01:24:04;;;;;;;2.80;1.12;;;;;;;;;;2328031;57;21058;-75
2022/07/27 01:26:33;;;;;;;3.67;1.30;;;;;;;;;;2327355;57;21038;-76
2022/07/27 01:29:01;;;;;;;4.70;1.73;;;;;;;;;;2327554;57;21050;-75
2022/07/27 01:31:28;;;;;;;5.40;1.20;;;;;;;;;;2327462;57;21137;-74
2022/07/27 01:33:55;;;;;;;4.57;1.65;;;;;;;;;;2326144;57;21046;-74
2022/07/27 01:36:22;;;;;;;3.95;1.23;;;;;;;;;;2331581;54;21070;-73
2022/07/27 01:38:49;;;;;;;4.62;1.52;;;;;;;;;;2327726;57;21030;-74
2022/07/27 01:41:16;;;;;;;4.60;1.40;;;;;;;;;;2327815;57;21054;-74
2022/07/27 01:43:44;;;;;;;3.60;1.08;;;;;;;;;;2345944;54;21058;-74
2022/07/27 01:46:11;;;;;;;5.07;1.55;;;;;;;;;;2325885;57;21133;-76
2022/07/27 01:48:38;;;;;;;4.47;1.52;;;;;;;;;;2327580;57;21050;-74
2022/07/27 01:51:05;;;;;;;6.40;1.60;;;;;;;;;;2326481;57;21600;-74
2022/07/27 01:53:33;;;;;;;5.32;1.48;;;;;;;;;;2327456;57;21043;-74
2022/07/27 01:56:00;;;;;;;4.78;1.52;;;;;;;;;;2331000;54;21127;-74
2022/07/27 01:58:27;;;;;;;5.15;1.58;;;;;;;;;;2327119;57;21101;-74
2022/07/27 02:00:54;;;;;;;9.88;2.25;;;;;;;;;;2327383;57;21133;-74
2022/07/27 02:03:21;;;;;;;5.37;1.42;;;;;;;;;;2327873;57;21053;-74
2022/07/27 02:05:48;;;;;;;3.80;1.15;;;;;;;;;;2327321;57;21155;-76
2022/07/27 02:08:15;;;;;;;9.60;1.42;;;;;;;;;;2327415;57;21074;-76
2022/07/27 02:13:29;;;;;;;6.95;1.80;;;;;;;;;;2359203;54;21125;-74
2022/07/27 02:15:56;;;;;;;5.65;1.33;;;;;;;;;;2327567;57;21530;-74
2022/07/27 02:18:23;;;;;;;4.75;1.77;;;;;;;;;;2327991;57;21974;-74
2022/07/27 02:20:50;;;;;;;6.90;1.80;;;;;;;;;;2328232;57;21050;-74
2022/07/27 02:23:17;;;;;;;4.68;1.10;;;;;;;;;;2326802;57;21743;-74
2022/07/27 02:25:44;;;;;;;6.80;2.08;;;;;;;;;;2326428;57;21073;-74
2022/07/27 02:28:12;;;;;;;4.10;1.33;;;;;;;;;;2327363;57;21706;-74
2022/07/27 02:30:39;;;;;;;3.97;1.17;;;;;;;;;;2327920;57;21137;-74
2022/07/27 02:33:07;;;;;;;3.65;1.55;;;;;;;;;;2327831;57;21043;-76
2022/07/27 02:35:34;;;;;;;7.07;1.70;;;;;;;;;;2327416;57;21066;-75
2022/07/27 02:38:01;;;;;;;7.12;1.45;;;;;;;;;;2326967;57;21134;-75
2022/07/27 02:40:28;;;;;;;3.80;1.10;;;;;;;;;;2327265;57;21332;-76
2022/07/27 02:42:55;;;;;;;6.22;1.90;;;;;;;;;;2327330;57;21030;-76
2022/07/27 02:45:23;;;;;;;5.22;1.37;;;;;;;;;;2326361;57;21050;-75
2022/07/27 02:47:50;;;;;;;3.72;1.50;;;;;;;;;;2328080;55;21070;-74
2022/07/27 02:50:17;;;;;;;7.03;1.67;;;;;;;;;;2327214;57;21109;-76
2022/07/27 02:52:44;;;;;;;5.78;1.45;;;;;;;;;;2327559;57;21126;-76
2022/07/27 02:55:11;;;;;;;5.45;1.35;;;;;;;;;;2326454;57;21065;-74
2022/07/27 02:57:39;;;;;;;3.53;1.50;;;;;;;;;;2326942;57;21125;-74
2022/07/27 03:00:10;;;;;;;5.47;1.65;;;;;;;;;;2327335;57;21185;-76
2022/07/27 03:02:37;;;;;;;3.37;1.60;;;;;;;;;;2327243;57;21062;-75
2022/07/27 03:05:05;;;;;;;5.75;1.85;;;;;;;;;;2332818;54;21070;-74
2022/07/27 03:07:32;;;;;;;8.43;1.73;;;;;;;;;;2326915;57;21049;-74
2022/07/27 03:09:59;;;;;;;6.32;1.52;;;;;;;;;;2335856;54;21062;-74
2022/07/27 03:12:26;;;;;;;4.12;1.30;;;;;;;;;;2327038;57;21054;-74
2022/07/27 03:14:53;;;;;;;5.03;1.33;;;;;;;;;;2328599;54;21100;-75
2022/07/27 03:17:21;;;;;;;7.07;1.55;;;;;;;;;;2326456;57;21046;-76
2022/07/27 03:19:48;;;;;;;3.67;1.37;;;;;;;;;;2327034;57;21055;-74
2022/07/27 03:22:16;;;;;;;6.20;1.75;;;;;;;;;;2327631;57;21106;-74
2022/07/27 03:24:43;;;;;;;6.40;1.73;;;;;;;;;;2327600;57;21034;-75
2022/07/27 03:27:10;;;;;;;5.57;1.20;;;;;;;;;;2327284;57;21482;-74
2022/07/27 03:29:37;;;;;;;4.40;1.20;;;;;;;;;;2327210;57;21078;-76
2022/07/27 03:32:04;;;;;;;6.05;1.40;;;;;;;;;;2328368;54;21110;-76
2022/07/27 03:34:31;;;;;;;3.95;1.52;;;;;;;;;;2327001;57;21137;-76
2022/07/27 03:36:58;;;;;;;8.40;1.70;;;;;;;;;;2326446;57;21058;-76
2022/07/27 03:39:25;;;;;;;4.68;1.65;;;;;;;;;;2327433;57;21113;-76
2022/07/27 03:41:53;;;;;;;4.85;1.70;;;;;;;;;;2327374;57;21165;-76
2022/07/27 03:44:20;;;;;;;4.57;1.20;;;;;;;;;;2328070;57;21181;-76
2022/07/27 03:46:47;;;;;;;5.32;1.40;;;;;;;;;;2326411;57;21184;-76
2022/07/27 03:49:14;;;;;;;6.65;1.65;;;;;;;;;;2328070;57;21034;-76
2022/07/27 03:51:41;;;;;;;7.00;1.67;;;;;;;;;;2370569;54;21117;-73
2022/07/27 03:54:08;;;;;;;4.87;1.48;;;;;;;;;;2449715;54;21067;-74
2022/07/27 03:56:35;;;;;;;8.18;1.37;;;;;;;;;;2326318;57;21321;-75
2022/07/27 03:59:02;;;;;;;5.78;2.40;;;;;;;;;;2326714;57;21114;-77
2022/07/27 04:01:29;;;;;;;3.50;1.50;;;;;;;;;;2325603;57;21541;-78
2022/07/27 04:03:56;;;;;;;4.62;0.90;;;;;;;;;;2327628;57;21525;-78
2022/07/27 04:06:24;;;;;;;7.25;1.58;;;;;;;;;;2326732;57;21046;-77
2022/07/27 04:08:51;;;;;;;4.35;1.25;;;;;;;;;;2326401;57;21445;-73
2022/07/27 04:11:18;;;;;;;7.10;1.50;;;;;;;;;;2326398;57;21126;-76
2022/07/27 04:13:48;;;;;;;5.28;1.55;;;;;;;;;;2326100;57;21062;-76
2022/07/27 04:16:15;;;;;;;3.62;1.15;;;;;;;;;;2325952;57;21093;-76
2022/07/27 04:18:42;;;;;;;5.53;1.30;;;;;;;;;;2327578;57;21639;-76
2022/07/27 04:21:09;;;;;;;4.45;1.23;;;;;;;;;;2327574;57;21030;-74
2022/07/27 04:23:36;;;;;;;6.57;1.27;;;;;;;;;;2327407;57;21185;-74
2022/07/27 04:26:03;;;;;;;9.18;1.55;;;;;;;;;;2327104;57;21058;-76
2022/07/27 04:28:31;;;;;;;5.35;1.33;;;;;;;;;;2326648;57;21818;-76
2022/07/27 04:30:58;;;;;;;6.43;1.20;;;;;;;;;;2327317;57;21620;-76
2022/07/27 04:33:25;;;;;;;5.22;1.05;;;;;;;;;;2326288;57;21139;-76
2022/07/27 04:35:52;;;;;;;5.85;1.23;;;;;;;;;;2327202;57;21134;-76
2022/07/27 04:38:19;;;;;;;6.32;1.52;;;;;;;;;;2326646;57;21596;-76
2022/07/27 04:40:46;;;;;;;6.37;1.62;;;;;;;;;;2327770;57;21130;-76
2022/07/27 04:43:13;;;;;;;5.68;1.30;;;;;;;;;;2363327;54;21038;-76
2022/07/27 04:45:40;;;;;;;6.10;1.55;;;;;;;;;;2410720;54;21193;-76
2022/07/27 04:48:09;;;;;;;4.65;1.45;;;;;;;;;;2327672;57;21133;-76
2022/07/27 04:50:39;;;;;;;4.57;1.23;;;;;;;;;;2328320;57;21118;-76
2022/07/27 04:53:07;;;;;;;4.60;1.30;;;;;;;;;;2326398;57;21763;-76
2022/07/27 04:55:34;;;;;;;3.67;1.48;;;;;;;;;;2327405;57;21121;-76
2022/07/27 04:58:01;;;;;;;7.87;1.25;;;;;;;;;;2328550;57;21651;-81
2022/07/27 05:00:28;;;;;;;7.35;2.05;;;;;;;;;;2378550;54;21564;-74
2022/07/27 05:02:55;;;;;;;7.25;1.80;;;;;;;;;;2328226;57;21134;-76
2022/07/27 05:05:22;;;;;;;3.45;1.00;;;;;;;;;;2327718;57;21107;-74
2022/07/27 05:07:49;;;;;;;6.07;1.80;;;;;;;;;;2327930;57;21066;-76
2022/07/27 05:10:17;;;;;;;6.37;1.33;;;;;;;;;;2328255;57;21070;-76
2022/07/27 05:12:44;;;;;;;4.25;1.23;;;;;;;;;;2375076;53;21550;-74
2022/07/27 05:15:11;;;;;;;2.58;1.17;;;;;;;;;;2303498;58;21076;-73
2022/07/27 05:17:38;;;;;;;4.07;1.15;;;;;;;;;;2302864;58;21071;-73
2022/07/27 05:20:06;;;;;;;4.90;1.77;;;;;;;;;;2303309;58;21569;-73
2022/07/27 05:22:33;;;;;;;10.52;1.73;;;;;;;;;;2328908;57;21548;-73
2022/07/27 05:25:00;;;;;;;4.00;1.35;;;;;;;;;;2573275;54;21745;-73
2022/07/27 05:27:27;;;;;;;5.65;1.83;;;;;;;;;;2329140;57;21057;-73
2022/07/27 05:29:54;;;;;;;6.72;2.00;;;;;;;;;;2329428;57;21406;-73
2022/07/27 05:32:21;;;;;;;7.85;1.40;;;;;;;;;;2329595;57;21053;-73
2022/07/27 05:34:48;;;;;;;6.87;1.50;;;;;;;;;;2329225;57;21045;-74
2022/07/27 05:37:16;;;;;;;4.28;1.33;;;;;;;;;;2329212;57;21618;-74
2022/07/27 05:39:43;;;;;;;5.10;1.33;;;;;;;;;;2329265;57;21595;-73
2022/07/27 05:42:10;;;;;;;8.20;1.35;;;;;;;;;;2329558;57;21053;-73
2022/07/27 05:44:37;;;;;;;4.03;1.42;;;;;;;;;;2329930;57;21061;-73
2022/07/27 05:47:04;;;;;;;5.53;1.20;;;;;;;;;;2329546;57;21626;-74
2022/07/27 05:49:31;;;;;;;6.18;1.58;;;;;;;;;;2329542;57;21085;-73
2022/07/27 05:51:58;;;;;;;11.63;1.62;;;;;;;;;;2329430;57;21363;-74
2022/07/27 05:54:25;;;;;;;10.52;1.83;;;;;;;;;;2329598;57;21551;-73
2022/07/27 05:56:52;;;;;;;4.50;1.10;;;;;;;;;;2573031;54;21137;-73
2022/07/27 05:59:19;;;;;;;5.20;1.48;;;;;;;;;;2329796;57;21064;-74
2022/07/27 06:01:46;;;;;;;6.03;1.58;;;;;;;;;;2329667;57;22181;-73
2022/07/27 06:04:13;;;;;;;11.38;1.73;;;;;;;;;;2329353;57;21657;-74
2022/07/27 06:09:26;;;;;;;4.00;1.15;;;;;;;;;;2329647;57;21009;-75
2022/07/27 06:11:53;;;;;;;4.68;1.20;;;;;;;;;;2329461;57;22171;-74
2022/07/27 06:14:20;;;;;;;7.47;1.80;;;;;;;;;;2329295;57;21124;-74
2022/07/27 06:16:47;;;;;;;4.72;1.27;;;;;;;;;;2329352;57;21109;-75
2022/07/27 06:19:14;;;;;;;8.20;1.27;;;;;;;;;;2329233;57;21073;-75
2022/07/27 06:21:41;;;;;;;6.10;1.83;;;;;;;;;;2329144;57;21612;-74
2022/07/27 06:24:11;;;;;;;8.63;1.70;;;;;;;;;;2572914;54;21069;-75
2022/07/27 06:26:38;;;;;;;9.75;1.52;;;;;;;;;;2329385;57;21066;-75
2022/07/27 06:29:05;;;;;;;8.02;1.83;;;;;;;;;;2329521;57;21075;-75
2022/07/27 06:31:32;;;;;;;7.30;1.92;;;;;;;;;;2329450;57;21057;-75
2022/07/27 06:33:59;;;;;;;4.78;1.27;;;;;;;;;;2329778;57;21065;-74
2022/07/27 06:36:26;;;;;;;4.68;1.33;;;;;;;;;;2329072;57;21105;-74
2022/07/27 06:38:53;;;;;;;9.25;1.65;;;;;;;;;;2329348;57;21547;-74
2022/07/27 06:41:21;;;;;;;6.03;1.40;;;;;;;;;;2329861;57;21100;-75
2022/07/27 06:43:48;;;;;;;7.68;1.77;;;;;;;;;;2329419;57;21065;-75
2022/07/27 06:46:15;;;;;;;7.18;1.40;;;;;;;;;;2329472;57;21140;-74
2022/07/27 06:48:42;;;;;;;4.40;1.20;;;;;;;;;;2329671;57;21069;-74
2022/07/27 06:51:09;;;;;;;3.22;1.40;;;;;;;;;;2329560;57;21622;-74
2022/07/27 06:53:36;;;;;;;9.98;2.22;;;;;;;;;;2329639;57;21631;-75
2022/07/27 06:56:03;;;;;;;7.80;1.52;;;;;;;;;;2329597;57;21141;-75
2022/07/27 06:58:31;;;;;;;4.90;1.33;;;;;;;;;;2329496;57;21053;-75
2022/07/27 07:00:58;;;;;;;9.05;1.40;;;;;;;;;;2329694;57;21112;-75
2022/07/27 07:03:25;;;;;;;5.28;1.30;;;;;;;;;;2329191;57;21132;-74
2022/07/27 07:05:52;;;;;;;6.62;1.70;;;;;;;;;;2572666;54;21563;-74
2022/07/27 07:08:21;;;;;;;7.55;1.35;;;;;;;;;;2329611;57;21141;-74
2022/07/27 07:10:48;;;;;;;5.05;1.20;;;;;;;;;;2329807;57;21133;-74
2022/07/27 07:13:15;;;;;;;3.97;1.20;;;;;;;;;;2329712;57;21118;-74
2022/07/27 07:15:43;;;;;;;9.77;2.10;;;;;;;;;;2329427;57;21611;-74
2022/07/27 07:18:11;;;;;;;7.37;2.42;;;;;;;;;;2573116;54;21112;-74
2022/07/27 07:20:38;;;;;;;6.65;1.40;;;;;;;;;;2329589;57;21165;-74
2022/07/27 07:23:06;;;;;;;5.57;1.60;;;;;;;;;;2329235;57;21057;-74
2022/07/27 07:25:33;;;;;;;3.25;1.15;;;;;;;;;;2329221;57;21061;-74
2022/07/27 07:28:00;;;;;;;7.15;1.23;;;;;;;;;;2329741;57;21113;-74
2022/07/27 07:30:28;;;;;;;6.22;1.58;;;;;;;;;;2329718;57;21104;-74
2022/07/27 07:32:55;;;;;;;6.43;1.30;;;;;;;;;;2329645;57;21117;-74
2022/07/27 07:35:22;;;;;;;5.95;1.75;;;;;;;;;;2329142;57;21065;-74
2022/07/27 07:37:49;;;;;;;4.72;1.30;;;;;;;;;;2329586;57;21626;-74
2022/07/27 07:40:16;;;;;;;5.60;1.23;;;;;;;;;;2329363;57;21141;-74
2022/07/27 07:42:51;;;;;;;4.72;1.02;;;;;;;;;;2329646;57;21587;-74
2022/07/27 07:45:19;;;;;;;6.10;1.35;;;;;;;;;;2329649;57;21108;-74
2022/07/27 07:47:46;;;;;;;7.87;1.50;;;;;;;;;;2329657;57;21053;-74
2022/07/27 07:50:13;;;;;;;4.68;1.95;;;;;;;;;;2329665;57;21132;-74
2022/07/27 07:52:40;;;;;;;4.10;1.08;;;;;;;;;;2329291;57;21683;-74
2022/07/27 07:55:08;;;;;;;6.07;1.23;;;;;;;;;;2572919;54;21164;-74
2022/07/27 07:57:36;;;;;;;6.43;1.75;;;;;;;;;;2329416;57;21037;-74
2022/07/27 08:00:04;;;;;;;9.57;1.42;;;;;;;;;;2329377;57;21062;-74
2022/07/27 08:02:31;;;;;;;10.27;1.85;;;;;;;;;;2329491;57;21056;-74
2022/07/27 08:04:58;;;;;;;6.45;1.55;;;;;;;;;;2329572;57;21069;-74
2022/07/27 08:07:25;;;;;;;5.82;1.42;;;;;;;;;;2328978;57;21312;-74
2022/07/27 08:09:52;;;;;;;8.73;1.48;;;;;;;;;;2329100;57;21120;-74
2022/07/27 08:12:19;;;;;;;7.78;1.95;;;;;;;;;;2329240;57;21081;-74
2022/07/27 08:14:46;;;;;;;7.80;1.60;;;;;;;;;;2329426;57;21155;-74
2022/07/27 08:17:13;;;;;;;5.78;1.30;;;;;;;;;;2329511;57;21052;-74
2022/07/27 08:19:40;;;;;;;3.92;1.23;;;;;;;;;;2329121;57;21065;-74
2022/07/27 08:22:07;;;;;;;6.80;1.30;;;;;;;;;;2329415;57;21176;-74
2022/07/27 08:24:35;;;;;;;6.60;1.75;;;;;;;;;;2329659;57;21144;-74
2022/07/27 08:27:02;;;;;;;4.47;1.70;;;;;;;;;;2572243;54;21594;-74
2022/07/27 08:29:29;;;;;;;7.72;1.75;;;;;;;;;;2329249;57;21625;-74
2022/07/27 08:31:56;;;;;;;4.37;1.40;;;;;;;;;;2572332;54;21060;-74
2022/07/27 08:34:23;;;;;;;7.12;1.52;;;;;;;;;;2328635;57;21057;-74
2022/07/27 08:36:50;;;;;;;5.30;1.65;;;;;;;;;;2328416;57;21550;-74
2022/07/27 08:39:17;;;;;;;7.22;1.12;;;;;;;;;;2328093;57;21069;-74
2022/07/27 08:41:44;;;;;;;6.55;1.40;;;;;;;;;;2328915;57;21049;-74
2022/07/27 08:44:13;;;;;;;4.37;1.15;;;;;;;;;;2328389;57;21132;-74
2022/07/27 08:46:45;;;;;;;11.23;1.60;;;;;;;;;;2329242;57;21119;-74
2022/07/27 08:49:12;;;;;;;5.78;1.55;;;;;;;;;;2329714;57;21065;-74
2022/07/27 08:51:39;;;;;;;7.32;1.20;;;;;;;;;;2329091;57;22377;-74
2022/07/27 08:54:07;;;;;;;4.45;1.23;;;;;;;;;;2329517;57;21069;-74
2022/07/27 08:56:34;;;;;;;5.97;1.48;;;;;;;;;;2328549;57;21356;-74
2022/07/27 08:59:02;;;;;;;4.68;1.05;;;;;;;;;;2329505;57;21587;-75
2022/07/27 09:01:31;;;;;;;4.32;1.20;;;;;;;;;;2329022;57;21560;-75
2022/07/27 09:03:58;;;;;;;4.97;1.40;;;;;;;;;;2329483;57;21539;-75
2022/07/27 09:06:41;;;;;;;5.65;1.73;;;;;;;;;;2572076;54;21184;-75
2022/07/27 09:09:08;;;;;;;10.45;1.45;;;;;;;;;;2329063;57;21133;-74
2022/07/27 09:11:36;;;;;;;2.75;1.20;;;;;;;;;;2328809;57;21524;-74
2022/07/27 09:14:03;;;;;;;6.05;1.55;;;;;;;;;;2571598;54;21382;-74
2022/07/27 09:16:31;;;;;;;2.45;0.80;;;;;;;;;;2571594;54;21128;-75
2022/07/27 09:19:01;;;;;;;6.32;1.23;;;;;;;;;;2327997;57;21061;-80
2022/07/27 09:21:30;;;;;;;5.25;1.12;;;;;;;;;;2570717;54;21116;-75
2022/07/27 09:24:05;;;;;;;7.68;1.40;;;;;;;;;;2328943;57;21531;-75
2022/07/27 09:26:33;;;;;;;3.78;1.23;;;;;;;;;;2572132;54;21152;-74
2022/07/27 09:29:00;;;;;;;5.10;1.37;;;;;;;;;;2329414;57;21140;-75
2022/07/27 09:31:28;;;;;;;5.75;1.30;;;;;;;;;;2328745;57;21536;-75
2022/07/27 09:33:56;;;;;;;2.45;1.08;;;;;;;;;;2328658;57;21623;-75
2022/07/27 09:36:24;;;;;;;4.50;1.20;;;;;;;;;;2571717;54;21538;-75
2022/07/27 09:38:51;;;;;;;8.35;1.40;;;;;;;;;;2329729;57;21065;-75
2022/07/27 09:41:19;;;;;;;8.23;1.15;;;;;;;;;;2329509;57;21220;-74
2022/07/27 09:43:47;;;;;;;3.58;1.10;;;;;;;;;;2329626;57;21049;-75
2022/07/27 09:46:14;;;;;;;4.65;1.30;;;;;;;;;;2329428;57;21136;-75
2022/07/27 09:48:41;;;;;;;5.80;1.30;;;;;;;;;;2328148;57;21132;-75
2022/07/27 09:51:09;;;;;;;5.32;1.37;;;;;;;;;;2329231;57;21424;-75
2022/07/27 09:53:36;;;;;;;3.97;1.35;;;;;;;;;;2572960;54;21049;-75
2022/07/27 09:56:05;;;;;;;2.12;1.05;;;;;;;;;;2329154;57;21057;-75
2022/07/27 09:58:42;;;;;;;5.65;1.20;;;;;;;;;;2573137;54;21095;-75
2022/07/27 10:01:10;;;;;;;2.35;1.05;;;;;;;;;;2329440;57;21516;-75
2022/07/27 10:03:38;;;;;;;2.90;1.10;;;;;;;;;;2329344;57;21053;-74
2022/07/27 10:06:05;;;;;;;3.33;0.98;;;;;;;;;;2329192;57;21065;-74
2022/07/27 10:08:33;;;;;;;6.00;1.27;;;;;;;;;;2329494;57;21128;-74
2022/07/27 10:11:00;;;;;;;4.20;1.10;;;;;;;;;;2572798;54;21061;-74
2022/07/27 10:13:27;;;;;;;2.55;1.37;;;;;;;;;;2328971;57;21085;-74
2022/07/27 10:15:54;;;;;;;3.87;1.45;;;;;;;;;;2329220;57;21133;-74
2022/07/27 10:18:27;;;;;;;5.12;1.33;;;;;;;;;;2329192;57;21057;-74
2022/07/27 10:20:56;;;;;;;17.58;1.62;;;;;;;;;;2328228;57;21050;-77
2022/07/27 10:23:27;;;;;;;4.20;1.60;;;;;;;;;;2328855;57;21375;-76
2022/07/27 10:26:25;;;;;;;4.80;1.40;;;;;;;;;;2327308;57;21065;-74
2022/07/27 10:28:54;;;;;;;4.28;0.90;;;;;;;;;;2291613;57;21054;-74
2022/07/27 10:31:23;;;;;;;3.22;1.27;;;;;;;;;;2329070;57;21152;-74
2022/07/27 10:33:51;;;;;;;5.55;1.42;;;;;;;;;;2571961;54;21080;-74
2022/07/27 10:36:34;;;;;;;2.62;1.00;;;;;;;;;;2327737;57;21061;-73
2022/07/27 10:39:02;;;;;;;5.50;1.08;;;;;;;;;;2571802;54;21116;-74
2022/07/27 10:41:30;;;;;;;7.47;1.25;;;;;;;;;;2328411;57;21626;-74
2022/07/27 10:44:15;;;;;;;5.95;1.12;;;;;;;;;;2327965;57;21191;-74
2022/07/27 10:46:43;;;;;;;3.20;1.12;;;;;;;;;;2328266;57;21366;-74
2022/07/27 10:49:21;;;;;;;4.85;1.40;;;;;;;;;;2328610;57;21053;-74
2022/07/27 10:51:48;;;;;;;3.25;1.33;;;;;;;;;;2572317;54;21049;-73
2022/07/27 10:54:22;;;;;;;5.90;1.25;;;;;;;;;;2327887;57;21112;-73
2022/07/27 10:56:50;;;;;;;6.10;1.27;;;;;;;;;;2328743;57;21535;-74
2022/07/27 10:59:36;;;;;;;7.53;1.30;;;;;;;;;;2328158;57;21056;-75
2022/07/27 11:02:04;;;;;;;5.05;1.45;;;;;;;;;;2569731;54;21116;-76
2022/07/27 11:04:31;;;;;;;7.18;1.12;;;;;;;;;;2327817;57;21196;-76
2022/07/27 11:06:59;;;;;;;6.15;1.00;;;;;;;;;;2328370;57;21148;-76
2022/07/27 11:09:36;;;;;;;4.28;1.15;;;;;;;;;;2327342;57;21539;-76
2022/07/27 11:12:04;;;;;;;7.65;1.67;;;;;;;;;;2571666;54;21164;-74
2022/07/27 11:14:31;;;;;;;4.90;1.23;;;;;;;;;;2455292;54;21607;-77
2022/07/27 11:16:58;;;;;;;4.57;1.25;;;;;;;;;;2265286;59;21079;-77
2022/07/27 11:19:25;;;;;;;5.87;1.45;;;;;;;;;;2265268;59;21075;-77
2022/07/27 11:21:52;;;;;;;5.95;1.67;;;;;;;;;;2267033;59;21510;-77
2022/07/27 11:24:22;;;;;;;5.78;1.40;;;;;;;;;;2267103;59;21078;-77
2022/07/27 11:26:50;;;;;;;10.10;2.37;;;;;;;;;;2266556;59;21054;-77
2022/07/27 11:29:19;;;;;;;8.40;1.35;;;;;;;;;;2266734;59;21058;-76
2022/07/27 11:31:49;;;;;;;6.37;1.30;;;;;;;;;;2267665;59;21122;-77
2022/07/27 11:34:16;;;;;;;4.32;1.10;;;;;;;;;;2266256;59;21147;-77
2022/07/27 11:36:45;;;;;;;4.47;1.12;;;;;;;;;;2265845;59;21066;-77
2022/07/27 11:39:13;;;;;;;5.80;1.35;;;;;;;;;;2495326;55;21612;-77
2022/07/27 11:41:41;;;;;;;2.60;1.23;;;;;;;;;;2265925;59;21129;-77
2022/07/27 11:44:09;;;;;;;6.37;1.40;;;;;;;;;;2266153;59;21142;-77
2022/07/27 11:46:41;;;;;;;5.53;1.70;;;;;;;;;;2265867;59;21078;-77
2022/07/27 11:49:09;;;;;;;3.37;0.93;;;;;;;;;;2265059;59;21086;-77
2022/07/27 11:51:36;;;;;;;5.37;1.00;;;;;;;;;;2266823;59;21090;-77
2022/07/27 11:54:04;;;;;;;4.37;1.10;;;;;;;;;;2265634;59;21564;-78
2022/07/27 11:56:32;;;;;;;4.95;1.10;;;;;;;;;;2265503;59;21070;-77
2022/07/27 11:59:01;;;;;;;4.25;1.15;;;;;;;;;;2265481;59;21644;-77
2022/07/27 12:01:29;;;;;;;4.03;1.33;;;;;;;;;;2266399;59;21109;-77
2022/07/27 12:04:30;;;;;;;5.53;1.65;;;;;;;;;;2265898;59;21687;-77
2022/07/27 12:09:37;;;;;;;5.37;1.10;;;;;;;;;;2354846;57;22085;-77
2022/07/27 12:12:10;;;;;;;4.05;1.37;;;;;;;;;;2368734;56;21039;-77
2022/07/27 12:14:38;;;;;;;4.80;1.23;;;;;;;;;;2374879;56;21616;-77
2022/07/27 12:17:15;;;;;;;5.93;1.52;;;;;;;;;;2373515;56;21051;-77
2022/07/27 12:19:42;;;;;;;5.28;2.00;;;;;;;;;;2374842;56;21094;-78
2022/07/27 12:22:09;;;;;;;6.97;1.80;;;;;;;;;;2627460;52;21055;-77
2022/07/27 12:24:37;;;;;;;5.95;1.55;;;;;;;;;;2372370;56;21085;-78
2022/07/27 12:27:06;;;;;;;3.97;1.40;;;;;;;;;;2373482;56;21058;-77
2022/07/27 12:29:33;;;;;;;3.28;0.95;;;;;;;;;;2627987;52;21027;-77
2022/07/27 12:32:02;;;;;;;3.90;0.98;;;;;;;;;;2373009;56;21062;-76
2022/07/27 12:34:33;;;;;;;3.05;1.10;;;;;;;;;;2373747;56;21091;-77
2022/07/27 12:37:00;;;;;;;8.32;1.58;;;;;;;;;;2372746;56;21182;-78
2022/07/27 12:39:28;;;;;;;5.75;1.55;;;;;;;;;;2374212;56;21119;-77
2022/07/27 12:42:06;;;;;;;3.83;1.30;;;;;;;;;;2374326;56;21541;-77
2022/07/27 12:44:34;;;;;;;3.45;1.48;;;;;;;;;;2626511;52;21099;-77
2022/07/27 12:47:39;;;;;;;5.65;1.17;;;;;;;;;;2372052;56;21047;-76
2022/07/27 12:50:07;;;;;;;4.43;1.23;;;;;;;;;;2373247;56;21059;-77
2022/07/27 12:52:34;;;;;;;2.50;1.10;;;;;;;;;;2374148;56;21031;-77
2022/07/27 12:55:01;;;;;;;5.45;1.37;;;;;;;;;;2372065;56;21102;-77
2022/07/27 12:57:29;;;;;;;5.90;1.00;;;;;;;;;;2373126;56;21035;-77
2022/07/27 12:59:56;;;;;;;3.90;1.00;;;;;;;;;;2373707;56;21541;-77
2022/07/27 13:02:23;;;;;;;6.72;1.37;;;;;;;;;;2627370;52;21042;-76
2022/07/27 13:04:50;;;;;;;5.45;1.30;;;;;;;;;;2373228;56;21134;-77
2022/07/27 13:07:18;;;;;;;4.95;1.10;;;;;;;;;;2373080;56;21059;-78
2022/07/27 13:09:45;;;;;;;2.70;1.17;;;;;;;;;;2373176;56;21097;-77
2022/07/27 13:12:13;;;;;;;4.93;1.02;;;;;;;;;;2374148;56;21652;-76
2022/07/27 13:14:40;;;;;;;4.45;1.30;;;;;;;;;;2372926;56;21059;-77
2022/07/27 13:17:07;;;;;;;3.62;1.10;;;;;;;;;;2372700;56;21680;-77
2022/07/27 13:19:34;;;;;;;3.17;1.23;;;;;;;;;;2373829;56;21046;-77
2022/07/27 13:22:02;;;;;;;4.65;1.40;;;;;;;;;;2371311;56;21129;-78
2022/07/27 13:24:29;;;;;;;5.47;0.88;;;;;;;;;;2372673;56;21031;-77
2022/07/27 13:26:56;;;;;;;4.97;1.12;;;;;;;;;;2370041;56;21110;-78
2022/07/27 13:29:23;;;;;;;5.18;1.27;;;;;;;;;;2371024;56;21182;-77
2022/07/27 13:31:50;;;;;;;3.70;1.42;;;;;;;;;;2372449;56;21051;-77
2022/07/27 13:34:17;;;;;;;4.30;1.00;;;;;;;;;;2371157;56;21031;-77
2022/07/27 13:36:44;;;;;;;4.57;1.23;;;;;;;;;;2369461;56;21121;-77
2022/07/27 13:39:11;;;;;;;7.97;1.83;;;;;;;;;;2370890;56;21136;-76
2022/07/27 13:41:38;;;;;;;4.60;1.00;;;;;;;;;;2372044;56;21043;-76
2022/07/27 13:44:06;;;;;;;3.50;1.12;;;;;;;;;;2369156;56;21075;-77
2022/07/27 13:46:33;;;;;;;4.62;1.58;;;;;;;;;;2368887;56;21110;-77
2022/07/27 13:49:01;;;;;;;3.20;1.10;;;;;;;;;;2372012;56;21310;-76
2022/07/27 13:51:28;;;;;;;5.47;1.40;;;;;;;;;;2370630;56;21023;-77
2022/07/27 13:53:55;;;;;;;2.75;0.95;;;;;;;;;;2623897;52;21043;-76
2022/07/27 13:56:22;;;;;;;3.25;1.00;;;;;;;;;;2372296;56;21134;-77
2022/07/27 14:01:53;;;;;;;5.62;1.30;;;;;;;;;;2606414;52;20982;-76
2022/07/27 14:04:20;;;;;;;5.07;1.25;;;;;;;;;;2371119;56;21071;-77
2022/07/27 14:06:47;;;;;;;6.70;1.30;;;;;;;;;;2372400;56;21058;-77
2022/07/27 14:09:14;;;;;;;3.30;1.30;;;;;;;;;;2371412;56;21043;-76
2022/07/27 14:11:41;;;;;;;8.52;1.85;;;;;;;;;;2372079;56;21628;-78
2022/07/27 14:14:09;;;;;;;3.90;1.25;;;;;;;;;;2371895;56;21545;-77
2022/07/27 14:16:37;;;;;;;8.27;1.33;;;;;;;;;;2371212;56;21545;-76
2022/07/27 14:19:04;;;;;;;2.50;1.12;;;;;;;;;;2371559;56;21130;-77
2022/07/27 14:21:31;;;;;;;7.20;1.12;;;;;;;;;;2373068;56;21102;-77
2022/07/27 14:24:00;;;;;;;3.22;1.08;;;;;;;;;;2372574;56;21197;-77
2022/07/27 14:26:27;;;;;;;4.03;1.45;;;;;;;;;;2373646;56;21047;-77
2022/07/27 14:28:55;;;;;;;5.15;1.17;;;;;;;;;;2373662;56;21102;-76
2022/07/27 14:31:22;;;;;;;3.03;0.90;;;;;;;;;;2373971;56;21035;-76
2022/07/27 14:33:49;;;;;;;7.45;1.25;;;;;;;;;;2373321;56;21043;-76
2022/07/27 14:36:17;;;;;;;5.80;1.37;;;;;;;;;;2373054;56;21040;-76
2022/07/27 14:38:44;;;;;;;5.90;1.33;;;;;;;;;;2374213;56;21169;-77
2022/07/27 14:41:11;;;;;;;3.25;1.10;;;;;;;;;;2373802;56;21075;-76
2022/07/27 14:43:38;;;;;;;8.65;1.35;;;;;;;;;;2374084;56;21126;-76
2022/07/27 14:46:06;;;;;;;4.90;1.10;;;;;;;;;;2373411;56;21111;-77
2022/07/27 14:48:33;;;;;;;2.53;0.98;;;;;;;;;;2373855;56;21110;-76
2022/07/27 14:51:00;;;;;;;4.72;1.10;;;;;;;;;;2373328;56;21114;-77
2022/07/27 14:53:27;;;;;;;2.90;1.00;;;;;;;;;;2373828;56;21098;-76
2022/07/27 14:55:55;;;;;;;2.50;0.77;;;;;;;;;;2373552;56;21079;-76
2022/07/27 14:58:22;;;;;;;3.78;1.10;;;;;;;;;;2374376;56;21051;-76
2022/07/27 15:00:49;;;;;;;5.65;1.75;;;;;;;;;;2374249;56;21114;-76